Latest Weather Observations for Outer Harbor (Black Pole)

IDS60801

Issued at 6:31 am CDT Wednesday 10 February 2016 (issued every 30 minutes, with the page automatically refreshed every 10 minutes)

About weather observations | Map of weather stations | Latest weather observations for SA | Other Formats
Station Details ID: 023052 Name: BLACK POLE Lat: -34.73 Lon: 138.47 Height: 8.0 m
Data from the previous 72 hours. | See also: Recent months for locations in South Australia
Date/Time
CDT
Temp
°C
App
Temp
°C
Dew
Point
Rel
Hum
%
Delta-T
°C
Wind Press
QNH
hPa
Press
MSL
hPa
Rain
since 9 am
mm
Dir
 
Spd
km/h
Gust
km/h
Spd
kts
Gust
kts
10/06:30am - - - - - N 11 11 6 6 - - -
10/06:00am - - - - - NNW 7 7 4 4 - - -
10/05:30am - - - - - NNE 6 7 3 4 - - -
10/05:00am - - - - - SE 4 4 2 2 - - -
10/04:30am - - - - - ESE 4 6 2 3 - - -
10/04:00am - - - - - SE 6 7 3 4 - - -
10/03:30am - - - - - SSW 6 7 3 4 - - -
10/03:00am - - - - - S 7 9 4 5 - - -
10/02:30am - - - - - E 7 9 4 5 - - -
10/02:00am - - - - - E 9 11 5 6 - - -
10/01:30am - - - - - ESE 11 15 6 8 - - -
10/01:00am - - - - - ESE 13 17 7 9 - - -
10/12:30am - - - - - ESE 13 15 7 8 - - -
10/12:00am - - - - - ESE 15 19 8 10 - - -
 
Date/Time
CDT
Temp
°C
App
Temp
°C
Dew
Point
Rel
Hum
%
Delta-T
°C
Wind Press
QNH
hPa
Press
MSL
hPa
Rain
since 9 am
mm
Dir
 
Spd
km/h
Gust
km/h
Spd
kts
Gust
kts
09/11:30pm - - - - - ESE 17 22 9 12 - - -
09/11:00pm - - - - - ESE 17 20 9 11 - - -
09/10:30pm - - - - - ESE 11 15 6 8 - - -
09/10:00pm - - - - - SE 7 11 4 6 - - -
09/09:30pm - - - - - SSE 13 17 7 9 - - -
09/09:00pm - - - - - S 19 20 10 11 - - -
09/08:30pm - - - - - S 22 26 12 14 - - -
09/08:00pm - - - - - S 28 32 15 17 - - -
09/07:30pm - - - - - SSW 26 30 14 16 - - -
09/07:00pm - - - - - SSW 26 28 14 15 - - -
09/06:30pm - - - - - SSW 24 28 13 15 - - -
09/06:00pm - - - - - S 24 28 13 15 - - -
09/05:30pm - - - - - S 28 32 15 17 - - -
09/05:00pm - - - - - S 30 33 16 18 - - -
09/04:30pm - - - - - S 26 32 14 17 - - -
09/04:00pm - - - - - S 30 35 16 19 - - -
09/03:30pm - - - - - S 32 39 17 21 - - -
09/03:00pm - - - - - S 32 39 17 21 - - -
09/02:30pm - - - - - S 28 35 15 19 - - -
09/02:00pm - - - - - S 28 32 15 17 - - -
09/01:30pm - - - - - S 30 33 16 18 - - -
09/01:00pm - - - - - S 22 26 12 14 - - -
09/12:30pm - - - - - S 24 26 13 14 - - -
09/12:00pm - - - - - SSW 20 22 11 12 - - -
09/11:30am - - - - - SSW 15 17 8 9 - - -
09/11:00am - - - - - SSW 11 13 6 7 - - -
09/10:30am - - - - - SSW 9 13 5 7 - - -
09/10:00am - - - - - ESE 9 9 5 5 - - -
09/09:30am - - - - - ESE 6 7 3 4 - - -
09/09:00am - - - - - ESE 7 9 4 5 - - -
09/08:30am - - - - - ESE 9 9 5 5 - - -
09/08:00am - - - - - E 7 9 4 5 - - -
09/07:30am - - - - - E 9 11 5 6 - - -
09/07:00am - - - - - ESE 9 11 5 6 - - -
09/06:30am - - - - - ESE 11 13 6 7 - - -
09/06:00am - - - - - ESE 9 11 5 6 - - -
09/05:30am - - - - - E 11 13 6 7 - - -
09/05:00am - - - - - ESE 9 11 5 6 - - -
09/04:30am - - - - - ENE 11 15 6 8 - - -
09/04:00am - - - - - NE 9 15 5 8 - - -
09/03:30am - - - - - N 13 15 7 8 - - -
09/03:00am - - - - - E 15 20 8 11 - - -
09/02:30am - - - - - SSE 4 7 2 4 - - -
09/02:00am - - - - - SSW 9 13 5 7 - - -
09/01:30am - - - - - SSW 11 13 6 7 - - -
09/01:00am - - - - - S 11 13 6 7 - - -
09/12:30am - - - - - S 15 19 8 10 - - -
09/12:00am - - - - - S 19 20 10 11 - - -
 
Date/Time
CDT
Temp
°C
App
Temp
°C
Dew
Point
Rel
Hum
%
Delta-T
°C
Wind Press
QNH
hPa
Press
MSL
hPa
Rain
since 9 am
mm
Dir
 
Spd
km/h
Gust
km/h
Spd
kts
Gust
kts
08/11:30pm - - - - - S 20 26 11 14 - - -
08/11:00pm - - - - - S 20 24 11 13 - - -
08/10:30pm - - - - - S 22 24 12 13 - - -
08/10:00pm - - - - - S 22 26 12 14 - - -
08/09:30pm - - - - - S 19 22 10 12 - - -
08/09:00pm - - - - - SSE 17 20 9 11 - - -
08/08:30pm - - - - - SSE 24 28 13 15 - - -
08/08:00pm - - - - - SSE 26 32 14 17 - - -
08/07:30pm - - - - - SSE 26 32 14 17 - - -
08/07:00pm - - - - - SSE 32 37 17 20 - - -
08/06:30pm - - - - - S 30 37 16 20 - - -
08/06:00pm - - - - - S 32 37 17 20 - - -
08/05:30pm - - - - - S 35 41 19 22 - - -
08/05:00pm - - - - - S 35 41 19 22 - - -
08/04:30pm - - - - - SSW 37 44 20 24 - - -
08/04:00pm - - - - - SSW 39 44 21 24 - - -
08/03:30pm - - - - - SSW 39 46 21 25 - - -
08/03:00pm - - - - - SSW 37 43 20 23 - - -
08/02:30pm - - - - - SSW 37 43 20 23 - - -
08/02:00pm - - - - - SSW 35 43 19 23 - - -
08/01:30pm - - - - - SSW 33 39 18 21 - - -
08/01:00pm - - - - - SSW 32 35 17 19 - - -
08/12:30pm - - - - - SSW 26 32 14 17 - - -
08/12:00pm - - - - - SSW 24 28 13 15 - - -
08/11:30am - - - - - S 19 20 10 11 - - -
08/11:00am - - - - - SSE 7 11 4 6 - - -
08/10:30am - - - - - S 11 13 6 7 - - -
08/10:00am - - - - - SSW 9 19 5 10 - - -
08/09:30am - - - - - SSE 2 4 1 2 - - -
08/09:00am - - - - - ENE 2 6 1 3 - - -
08/08:30am - - - - - ESE 2 4 1 2 - - -
08/08:00am - - - - - E 4 6 2 3 - - -
08/07:30am - - - - - E 7 11 4 6 - - -
08/07:00am - - - - - E 13 15 7 8 - - -
08/06:30am - - - - - E 11 17 6 9 - - -
08/06:00am - - - - - E 13 17 7 9 - - -
08/05:30am - - - - - E 13 15 7 8 - - -
08/05:00am - - - - - E 13 17 7 9 - - -
08/04:30am - - - - - E 13 17 7 9 - - -
08/04:00am - - - - - SSE 6 7 3 4 - - -
08/03:30am - - - - - SE 6 9 3 5 - - -
08/03:00am - - - - - SE 6 9 3 5 - - -
08/02:30am - - - - - SSE 11 15 6 8 - - -
08/02:00am - - - - - SSE 17 19 9 10 - - -
08/01:30am - - - - - SSE 17 20 9 11 - - -
08/01:00am - - - - - SSE 17 20 9 11 - - -
08/12:30am - - - - - S 19 22 10 12 - - -
08/12:00am - - - - - SSE 13 17 7 9 - - -
 
Date/Time
CDT
Temp
°C
App
Temp
°C
Dew
Point
Rel
Hum
%
Delta-T
°C
Wind Press
QNH
hPa
Press
MSL
hPa
Rain
since 9 am
mm
Dir
 
Spd
km/h
Gust
km/h
Spd
kts
Gust
kts
07/11:30pm - - - - - SSE 17 20 9 11 - - -
07/11:00pm - - - - - SSE 24 26 13 14 - - -
07/10:30pm - - - - - S 30 33 16 18 - - -
07/10:00pm - - - - - S 33 41 18 22 - - -
07/09:30pm - - - - - S 33 41 18 22 - - -
07/09:00pm - - - - - S 30 35 16 19 - - -
07/08:30pm - - - - - SSW 32 39 17 21 - - -
07/08:00pm - - - - - SSW 35 41 19 22 - - -
07/07:30pm - - - - - SSW 33 39 18 21 - - -
07/07:00pm - - - - - SSW 35 43 19 23 - - -
07/06:30pm - - - - - SSW 37 43 20 23 - - -
07/06:00pm - - - - - SSW 35 41 19 22 - - -
07/05:30pm - - - - - SSW 35 43 19 23 - - -
07/05:00pm - - - - - SSW 35 41 19 22 - - -
07/04:30pm - - - - - SSW 32 37 17 20 - - -
07/04:00pm - - - - - SSW 30 35 16 19 - - -
07/03:30pm - - - - - SSW 28 33 15 18 - - -
07/03:00pm - - - - - SSW 30 35 16 19 - - -
07/02:30pm - - - - - SSW 30 33 16 18 - - -
07/02:00pm - - - - - SSW 30 33 16 18 - - -
07/01:30pm - - - - - SSW 26 30 14 16 - - -
07/01:00pm - - - - - SSW 22 26 12 14 - - -
07/12:30pm - - - - - SW 19 22 10 12 - - -
07/12:00pm - - - - - SSW 13 17 7 9 - - -
07/11:30am - - - - - SSW 11 15 6 8 - - -
07/11:00am - - - - - SSW 11 13 6 7 - - -
07/10:30am - - - - - SSW 13 17 7 9 - - -
07/10:00am - - - - - SSW 15 19 8 10 - - -
07/09:30am - - - - - SW 11 15 6 8 - - -
07/09:00am - - - - - SSW 6 7 3 4 - - -
07/08:30am - - - - - S 7 9 4 5 - - -
07/08:00am - - - - - S 13 15 7 8 - - -
07/07:30am - - - - - S 19 22 10 12 - - -
07/07:00am - - - - - S 17 22 9 12 - - -

Other Formats:

Comma delimited format used in spreadsheet applications
http://www.bom.gov.au/fwo/IDS60801/IDS60801.95675.axf

JavaScript Object Notation format (JSON) in row-major order
http://www.bom.gov.au/fwo/IDS60801/IDS60801.95675.json